Saukville, Wisconsin
Current Conditions -  °F | °C
As of 3:30 AM on Saturday 20 Dec 2014 (Local Time) from KETB Reporting Station
Overcast Overcast  
Wind Chill: 25°   Ceiling: 2300
Heat Index: 25°   Visibility: 10mi
Dew Point: 19°   Wind: 0mph
Humidity: 80%   Direction: NA
Pressure: 30.26"   Gusts: NA
Location:  43.38°N, 87.94°W
Report Text: KETB 200930Z AUTO 00000KT 10SM OVC023 M04/M07 A3026 RMK AO2
Loading
Personal Weather Stations






























Interactive Weather Map New forecast layout! Learn more

10-Day Weather Forecast

Advertisements
Track Severe Weather on mobile